Time;durP1;ratioP1;P1;durP2;ratioP2;P2;SDS_P1;SDS_P2;PMS_P1;PMS_P2;Temp;Humidity;BMP_temperature;BMP_pressure;BME280_temperature;BME280_humidity;BME280_pressure;Samples;Min_cycle;Max_cycle;Signal;HPM_P1;HPM_P2
2024/02/15 00:00:20;;;;;;;0.82;0.82;;;15.90;76.50;;;;;;5023148;28;20045;-78
2024/02/15 00:02:46;;;;;;;0.85;0.80;;;16.00;76.50;;;;;;5001510;28;20514;-78
2024/02/15 00:05:12;;;;;;;0.85;0.82;;;15.90;76.60;;;;;;5020138;28;20117;-78
2024/02/15 00:07:38;;;;;;;0.70;0.70;;;15.90;76.50;;;;;;5001192;28;20077;-78
2024/02/15 00:10:04;;;;;;;0.73;0.70;;;15.90;76.50;;;;;;5016102;28;20523;-78
2024/02/15 00:12:30;;;;;;;0.75;0.75;;;15.90;76.50;;;;;;5005265;28;20046;-78
2024/02/15 00:14:58;;;;;;;1.92;1.00;;;15.90;76.50;;;;;;5003180;28;20075;-78
2024/02/15 00:17:25;;;;;;;0.80;0.80;;;15.90;76.60;;;;;;5003346;28;20065;-78
2024/02/15 00:19:51;;;;;;;0.60;0.60;;;15.90;76.60;;;;;;5005208;28;20046;-78
2024/02/15 00:22:16;;;;;;;0.88;0.88;;;15.90;76.50;;;;;;4998544;28;20556;-78
2024/02/15 00:24:42;;;;;;;0.95;0.95;;;15.90;76.50;;;;;;4990516;28;20141;-78
2024/02/15 00:27:08;;;;;;;0.68;0.68;;;15.90;76.50;;;;;;5016369;28;20507;-79
2024/02/15 00:29:34;;;;;;;1.20;1.10;;;15.90;76.60;;;;;;5019102;28;20523;-78
2024/02/15 00:32:01;;;;;;;0.90;0.90;;;15.90;76.60;;;;;;5016515;28;20042;-78
2024/02/15 00:34:27;;;;;;;1.02;0.70;;;15.90;76.50;;;;;;5002813;28;20515;-78
2024/02/15 00:36:53;;;;;;;0.70;0.70;;;15.90;77.40;;;;;;4989181;28;20519;-78
2024/02/15 00:39:19;;;;;;;1.55;1.30;;;15.90;76.20;;;;;;5005015;28;20065;-78
2024/02/15 00:41:45;;;;;;;0.93;0.82;;;15.90;76.60;;;;;;4999767;28;20117;-78
2024/02/15 00:44:11;;;;;;;0.70;0.70;;;15.90;76.70;;;;;;5013582;28;20133;-78
2024/02/15 00:46:37;;;;;;;0.90;0.90;;;15.90;76.60;;;;;;4998575;28;20535;-78
2024/02/15 00:49:06;;;;;;;0.98;0.98;;;15.90;76.80;;;;;;5017694;28;20079;-78
2024/02/15 00:51:32;;;;;;;0.85;0.85;;;15.80;76.80;;;;;;5017574;28;20038;-78
2024/02/15 00:53:58;;;;;;;0.80;0.80;;;15.80;76.90;;;;;;5002097;28;20575;-78
2024/02/15 00:56:24;;;;;;;1.48;0.82;;;15.80;76.90;;;;;;5004228;28;20694;-78
2024/02/15 00:58:50;;;;;;;0.82;0.82;;;15.90;76.80;;;;;;5001841;28;20053;-78
2024/02/15 01:01:15;;;;;;;0.90;0.90;;;15.90;76.70;;;;;;5000522;28;20042;-78
2024/02/15 01:03:41;;;;;;;0.65;0.65;;;15.90;76.70;;;;;;5014627;28;20152;-77
2024/02/15 01:06:06;;;;;;;1.23;0.85;;;15.90;77.60;;;;;;5013144;28;20037;-78
2024/02/15 01:08:33;;;;;;;0.70;0.70;;;15.80;76.80;;;;;;4996606;28;20054;-78
2024/02/15 01:10:58;;;;;;;1.10;1.00;;;15.90;76.70;;;;;;5015698;28;20484;-79
2024/02/15 01:13:25;;;;;;;0.70;0.70;;;15.90;77.50;;;;;;5012743;28;20057;-79
2024/02/15 01:15:50;;;;;;;0.80;0.80;;;15.80;76.80;;;;;;4999810;28;20463;-79
2024/02/15 01:18:16;;;;;;;0.80;0.80;;;15.80;76.70;;;;;;5005510;28;20499;-80
2024/02/15 01:20:42;;;;;;;0.90;0.90;;;15.90;76.80;;;;;;4998893;28;20122;-80
2024/02/15 01:23:07;;;;;;;0.80;0.80;;;15.90;76.90;;;;;;4999297;28;20062;-78
2024/02/15 01:25:33;;;;;;;0.65;0.55;;;15.80;76.80;;;;;;4999883;28;20099;-78
2024/02/15 01:28:01;;;;;;;0.90;0.90;;;15.80;76.90;;;;;;5005218;28;20053;-78
2024/02/15 01:30:28;;;;;;;1.00;0.80;;;15.80;76.90;;;;;;4998039;28;20040;-78
2024/02/15 01:32:54;;;;;;;0.98;0.98;;;15.80;76.90;;;;;;4999864;28;20050;-78
2024/02/15 01:35:20;;;;;;;1.25;1.00;;;15.80;76.90;;;;;;5015634;28;20100;-79
2024/02/15 01:37:46;;;;;;;0.90;0.85;;;15.80;76.90;;;;;;4999745;28;21596;-79
2024/02/15 01:40:12;;;;;;;0.70;0.70;;;15.80;77.00;;;;;;5012789;28;20054;-79
2024/02/15 01:42:39;;;;;;;1.02;0.70;;;15.80;77.10;;;;;;5001854;28;20076;-79
2024/02/15 01:45:05;;;;;;;0.70;0.70;;;15.80;77.10;;;;;;5014243;28;20046;-79
2024/02/15 01:47:31;;;;;;;0.73;0.70;;;15.70;77.40;;;;;;5016935;28;20038;-79
2024/02/15 01:49:56;;;;;;;0.68;0.68;;;15.70;77.50;;;;;;5003907;28;20511;-79
2024/02/15 01:52:22;;;;;;;0.60;0.60;;;15.80;77.30;;;;;;5002908;28;20046;-79
2024/02/15 01:54:47;;;;;;;0.80;0.80;;;15.70;77.20;;;;;;5003673;28;20050;-79
2024/02/15 01:57:13;;;;;;;0.70;0.70;;;15.70;77.30;;;;;;5018736;28;20112;-79
2024/02/15 01:59:39;;;;;;;0.73;0.73;;;15.70;77.20;;;;;;5015132;28;20064;-79
2024/02/15 02:02:05;;;;;;;0.60;0.60;;;15.70;77.30;;;;;;5018813;28;20087;-79
2024/02/15 02:04:31;;;;;;;1.25;0.57;;;15.70;77.20;;;;;;5016046;28;20129;-78
2024/02/15 02:06:58;;;;;;;0.60;0.60;;;15.70;77.30;;;;;;5003238;28;20121;-79
2024/02/15 02:09:24;;;;;;;0.70;0.50;;;15.70;77.30;;;;;;5005053;28;20046;-79
2024/02/15 02:11:50;;;;;;;0.88;0.68;;;15.70;77.30;;;;;;5003025;28;20049;-78
2024/02/15 02:14:16;;;;;;;1.40;0.98;;;15.70;77.20;;;;;;5016464;28;20065;-78
2024/02/15 02:16:42;;;;;;;0.93;0.70;;;15.70;77.40;;;;;;5011889;28;20050;-78
2024/02/15 02:19:08;;;;;;;0.68;0.68;;;15.70;77.20;;;;;;5000313;28;20088;-78
2024/02/15 02:21:35;;;;;;;0.63;0.63;;;15.80;77.30;;;;;;5000197;28;20112;-78
2024/02/15 02:24:02;;;;;;;0.50;0.50;;;15.70;77.30;;;;;;5003988;28;20479;-78
2024/02/15 02:26:27;;;;;;;0.82;0.80;;;15.70;77.20;;;;;;5023137;28;20049;-78
2024/02/15 02:28:53;;;;;;;1.73;0.70;;;15.70;77.30;;;;;;5006356;28;20096;-79
2024/02/15 02:31:19;;;;;;;0.63;0.63;;;15.70;77.20;;;;;;5007634;28;20049;-78
2024/02/15 02:33:53;;;;;;;0.68;0.65;;;15.70;77.30;;;;;;5002284;28;20057;-78
2024/02/15 02:36:19;;;;;;;0.55;0.52;;;15.70;77.30;;;;;;5006140;28;20045;-78
2024/02/15 02:38:45;;;;;;;0.60;0.60;;;15.70;77.20;;;;;;5017620;28;20039;-78
2024/02/15 02:41:12;;;;;;;0.80;0.80;;;15.70;77.30;;;;;;5004166;28;20041;-78
2024/02/15 02:43:39;;;;;;;0.90;0.90;;;15.70;77.30;;;;;;5003604;28;20127;-78
2024/02/15 02:46:05;;;;;;;0.68;0.68;;;15.70;77.50;;;;;;5005505;28;20136;-79
2024/02/15 02:48:31;;;;;;;0.70;0.70;;;15.70;77.40;;;;;;5006646;28;20050;-77
2024/02/15 02:50:57;;;;;;;0.60;0.60;;;15.70;77.40;;;;;;5002788;28;20050;-78
2024/02/15 02:53:23;;;;;;;0.57;0.57;;;15.70;77.50;;;;;;5014444;28;20116;-78
2024/02/15 02:55:49;;;;;;;0.50;0.50;;;15.70;77.40;;;;;;5004181;28;20503;-78
2024/02/15 02:58:15;;;;;;;0.60;0.60;;;15.70;77.40;;;;;;5007434;28;20121;-78
2024/02/15 03:00:40;;;;;;;1.33;0.65;;;15.70;77.50;;;;;;5002559;28;20534;-78
2024/02/15 03:03:06;;;;;;;0.60;0.60;;;15.70;77.40;;;;;;5004810;28;20042;-78
2024/02/15 03:05:31;;;;;;;0.75;0.75;;;15.70;77.30;;;;;;4999543;28;20080;-78
2024/02/15 03:07:57;;;;;;;0.80;0.70;;;15.70;77.30;;;;;;5020853;28;20088;-79
2024/02/15 03:10:24;;;;;;;0.80;0.80;;;15.70;77.50;;;;;;5018342;28;20061;-79
2024/02/15 03:12:50;;;;;;;0.80;0.80;;;15.70;77.30;;;;;;4989919;28;20123;-78
2024/02/15 03:15:16;;;;;;;0.70;0.70;;;15.70;77.40;;;;;;5016209;28;20516;-78
2024/02/15 03:17:43;;;;;;;0.60;0.60;;;15.80;77.30;;;;;;5002350;28;20042;-78
2024/02/15 03:20:20;;;;;;;0.55;0.55;;;15.80;77.20;;;;;;4989637;28;20038;-78
2024/02/15 03:22:52;;;;;;;1.20;0.63;;;15.70;77.10;;;;;;5004210;28;20096;-78
2024/02/15 03:25:18;;;;;;;0.60;0.60;;;15.70;77.80;;;;;;5000631;28;20042;-79
2024/02/15 03:27:44;;;;;;;0.65;0.65;;;15.70;77.30;;;;;;5003928;28;20042;-79
2024/02/15 03:30:10;;;;;;;0.40;0.40;;;15.70;77.30;;;;;;5002239;28;20057;-79
2024/02/15 03:32:36;;;;;;;0.60;0.60;;;15.70;77.40;;;;;;5000535;28;20072;-78
2024/02/15 03:35:02;;;;;;;0.68;0.68;;;15.70;77.40;;;;;;5002045;28;20121;-78
2024/02/15 03:37:28;;;;;;;0.63;0.63;;;15.70;77.40;;;;;;4997826;28;20058;-79
2024/02/15 03:39:54;;;;;;;0.70;0.70;;;15.70;77.50;;;;;;5001952;28;20151;-78
2024/02/15 03:42:20;;;;;;;1.02;0.60;;;15.70;77.50;;;;;;5003880;28;20046;-79
2024/02/15 03:44:47;;;;;;;0.82;0.82;;;15.70;77.40;;;;;;5014197;28;20530;-79
2024/02/15 03:47:14;;;;;;;0.70;0.70;;;15.70;77.60;;;;;;5014493;28;20045;-79
2024/02/15 03:49:42;;;;;;;0.70;0.70;;;15.70;77.50;;;;;;5016055;28;20038;-78
2024/02/15 03:52:10;;;;;;;0.70;0.70;;;15.70;77.50;;;;;;5004943;28;20042;-78
2024/02/15 03:54:36;;;;;;;0.70;0.70;;;15.70;77.60;;;;;;4999955;28;20385;-78
2024/02/15 03:57:01;;;;;;;0.75;0.60;;;15.70;77.40;;;;;;5017966;28;20507;-78
2024/02/15 03:59:27;;;;;;;1.00;0.80;;;15.70;77.50;;;;;;5004518;28;20071;-78
2024/02/15 04:01:53;;;;;;;0.70;0.63;;;15.70;77.60;;;;;;5003561;28;20044;-79
2024/02/15 04:04:20;;;;;;;0.88;0.52;;;15.70;77.40;;;;;;4999171;28;20046;-78
2024/02/15 04:06:47;;;;;;;0.70;0.70;;;15.70;77.40;;;;;;5001789;28;20046;-79
2024/02/15 04:09:12;;;;;;;0.50;0.50;;;15.70;77.30;;;;;;5001221;28;20042;-78
2024/02/15 04:11:38;;;;;;;0.60;0.60;;;15.70;77.40;;;;;;5015012;28;20061;-78
2024/02/15 04:14:03;;;;;;;0.50;0.50;;;15.70;77.50;;;;;;5016127;28;20050;-77
2024/02/15 04:16:31;;;;;;;0.80;0.80;;;15.60;77.30;;;;;;5002628;28;20080;-77
2024/02/15 04:18:59;;;;;;;0.70;0.70;;;15.70;77.40;;;;;;5018512;28;20054;-78
2024/02/15 04:21:27;;;;;;;0.80;0.80;;;15.70;77.40;;;;;;5001063;28;20070;-78
2024/02/15 04:23:54;;;;;;;0.60;0.60;;;15.60;77.30;;;;;;5016451;28;20100;-78
2024/02/15 04:26:19;;;;;;;0.60;0.60;;;15.60;77.30;;;;;;5003875;28;20069;-77
2024/02/15 04:28:48;;;;;;;0.68;0.60;;;15.70;77.40;;;;;;5003115;28;20136;-78
2024/02/15 04:31:15;;;;;;;0.60;0.60;;;15.60;77.40;;;;;;5004307;28;20069;-78
2024/02/15 04:33:41;;;;;;;0.52;0.52;;;15.60;77.60;;;;;;5006225;28;20124;-77
2024/02/15 04:36:06;;;;;;;0.50;0.50;;;15.60;77.40;;;;;;5003176;28;20042;-78
2024/02/15 04:38:34;;;;;;;0.77;0.77;;;15.60;77.20;;;;;;5005437;28;20045;-78
2024/02/15 04:41:05;;;;;;;0.60;0.60;;;15.70;77.30;;;;;;4998107;28;20042;-77
2024/02/15 04:43:33;;;;;;;0.50;0.50;;;15.60;77.30;;;;;;4999611;28;20100;-77
2024/02/15 04:45:58;;;;;;;0.60;0.60;;;15.60;77.30;;;;;;4984843;28;20046;-78
2024/02/15 04:48:24;;;;;;;0.50;0.50;;;15.60;77.30;;;;;;4996616;28;20060;-77
2024/02/15 04:50:51;;;;;;;0.57;0.57;;;15.70;77.40;;;;;;5005059;28;21455;-79
2024/02/15 04:53:17;;;;;;;0.60;0.60;;;15.70;77.40;;;;;;5001708;28;20060;-79
2024/02/15 04:55:42;;;;;;;0.65;0.65;;;15.60;77.30;;;;;;5019723;28;22202;-79
2024/02/15 04:58:10;;;;;;;0.38;0.38;;;15.60;77.30;;;;;;5001255;28;20050;-79
2024/02/15 05:00:36;;;;;;;0.50;0.50;;;15.60;77.30;;;;;;4989633;28;20603;-78
2024/02/15 05:03:02;;;;;;;0.63;0.50;;;15.60;77.30;;;;;;4997524;28;20543;-78
2024/02/15 05:05:29;;;;;;;0.60;0.60;;;15.60;77.30;;;;;;5019946;28;20397;-78
2024/02/15 05:07:54;;;;;;;0.40;0.40;;;15.60;77.30;;;;;;5003016;28;20052;-78
2024/02/15 05:10:20;;;;;;;0.40;0.40;;;15.60;77.30;;;;;;5003602;28;20983;-78
2024/02/15 05:12:47;;;;;;;0.60;0.60;;;15.60;77.20;;;;;;5000392;28;20096;-77
2024/02/15 05:15:14;;;;;;;0.50;0.50;;;15.70;77.50;;;;;;5028100;28;20128;-79
2024/02/15 05:17:43;;;;;;;0.57;0.47;;;15.60;77.30;;;;;;5000950;28;20042;-79
2024/02/15 05:20:12;;;;;;;0.60;0.60;;;15.60;77.30;;;;;;4998790;28;20046;-78
2024/02/15 05:22:39;;;;;;;0.50;0.50;;;15.60;77.20;;;;;;4995447;28;20165;-78
2024/02/15 05:25:07;;;;;;;0.50;0.50;;;15.60;77.20;;;;;;5008691;28;20152;-78
2024/02/15 05:27:33;;;;;;;0.50;0.50;;;15.60;77.30;;;;;;5014673;28;20042;-78
2024/02/15 05:29:59;;;;;;;0.68;0.68;;;15.60;77.30;;;;;;4997768;28;20052;-79
2024/02/15 05:32:26;;;;;;;0.57;0.57;;;15.60;77.30;;;;;;5001196;28;20057;-79
2024/02/15 05:34:51;;;;;;;0.77;0.60;;;15.60;77.30;;;;;;5013407;28;20136;-79
2024/02/15 05:37:17;;;;;;;0.60;0.60;;;15.60;77.40;;;;;;4999752;28;20214;-78
2024/02/15 05:39:42;;;;;;;0.60;0.60;;;15.60;77.30;;;;;;4978862;28;20129;-78
2024/02/15 05:42:10;;;;;;;0.55;0.55;;;15.60;77.30;;;;;;5001964;28;20066;-78
2024/02/15 05:44:36;;;;;;;0.70;0.70;;;15.60;77.20;;;;;;4998842;28;20042;-78
2024/02/15 05:47:01;;;;;;;0.65;0.65;;;15.60;77.20;;;;;;5000506;28;20060;-78
2024/02/15 05:49:27;;;;;;;0.57;0.57;;;15.60;77.30;;;;;;4998578;28;20042;-78
2024/02/15 05:51:56;;;;;;;0.85;0.52;;;15.60;77.30;;;;;;5003778;28;20052;-78
2024/02/15 05:54:25;;;;;;;0.60;0.60;;;15.60;77.20;;;;;;5003592;28;20129;-78
2024/02/15 05:56:53;;;;;;;0.70;0.70;;;15.60;78.00;;;;;;4996387;28;20107;-79
2024/02/15 05:59:20;;;;;;;0.52;0.52;;;15.60;77.20;;;;;;5015948;28;20120;-78
2024/02/15 06:01:48;;;;;;;0.50;0.50;;;15.60;77.60;;;;;;5003682;28;20053;-78
2024/02/15 06:04:14;;;;;;;0.52;0.52;;;15.60;77.10;;;;;;5003089;28;20117;-79
2024/02/15 06:06:40;;;;;;;0.57;0.57;;;15.60;77.20;;;;;;5008249;28;20053;-78
2024/02/15 06:09:05;;;;;;;0.60;0.60;;;15.60;77.10;;;;;;5000372;28;20042;-79
2024/02/15 06:11:31;;;;;;;0.65;0.65;;;15.60;77.10;;;;;;5019891;28;20050;-79
2024/02/15 06:13:57;;;;;;;0.30;0.30;;;15.60;77.90;;;;;;5002489;28;20128;-79
2024/02/15 06:16:23;;;;;;;0.50;0.50;;;15.60;77.20;;;;;;5000367;28;20041;-79
2024/02/15 06:18:48;;;;;;;0.47;0.47;;;15.60;77.20;;;;;;5006835;28;20503;-79
2024/02/15 06:21:14;;;;;;;0.70;0.70;;;15.60;77.20;;;;;;5020745;28;20520;-79
2024/02/15 06:23:40;;;;;;;0.40;0.40;;;15.60;77.10;;;;;;5003358;28;20437;-79
2024/02/15 06:26:06;;;;;;;0.60;0.57;;;15.60;77.10;;;;;;4999119;28;20048;-79
2024/02/15 06:39:40;;;;;;;0.40;0.40;;;15.60;77.20;;;;;;5002952;28;20040;-79
2024/02/15 06:42:06;;;;;;;;;;;15.60;77.10;;;;;;5004703;28;20104;-82
2024/02/15 06:44:32;;;;;;;0.50;0.50;;;15.60;77.00;;;;;;4999918;28;19918;-81
2024/02/15 06:46:57;;;;;;;0.52;0.50;;;15.60;77.10;;;;;;5015467;28;20108;-81
2024/02/15 06:49:26;;;;;;;0.50;0.50;;;15.60;77.10;;;;;;5007268;28;20065;-82
2024/02/15 06:51:52;;;;;;;0.50;0.50;;;15.60;77.10;;;;;;4989092;28;20405;-81
2024/02/15 06:54:18;;;;;;;0.50;0.50;;;15.60;77.20;;;;;;5004700;28;20065;-82
2024/02/15 06:56:46;;;;;;;0.32;0.32;;;15.60;77.20;;;;;;5020056;28;20053;-80
2024/02/15 06:59:14;;;;;;;0.50;0.50;;;15.60;77.20;;;;;;5001948;28;20045;-80
2024/02/15 07:01:41;;;;;;;0.40;0.40;;;15.60;77.00;;;;;;5013916;28;20072;-81
2024/02/15 07:04:08;;;;;;;0.57;0.57;;;15.60;77.10;;;;;;4999911;28;20057;-81
2024/02/15 07:06:34;;;;;;;0.50;0.50;;;15.60;77.00;;;;;;4990533;28;20435;-83
2024/02/15 07:09:00;;;;;;;0.50;0.50;;;15.50;77.10;;;;;;5017438;28;20550;-81
2024/02/15 07:11:26;;;;;;;0.45;0.45;;;15.60;77.10;;;;;;5006344;28;20125;-81
2024/02/15 07:13:54;;;;;;;0.60;0.60;;;15.60;77.90;;;;;;5006353;28;20038;-80
2024/02/15 07:16:20;;;;;;;0.70;0.60;;;15.60;77.10;;;;;;5006603;28;20046;-80
2024/02/15 07:18:46;;;;;;;0.68;0.68;;;15.60;77.10;;;;;;5002662;28;20463;-81
2024/02/15 07:21:13;;;;;;;0.93;0.55;;;15.60;77.00;;;;;;5018026;28;20435;-79
2024/02/15 07:23:41;;;;;;;0.50;0.50;;;15.60;77.30;;;;;;5003199;28;20765;-80
2024/02/15 07:26:07;;;;;;;0.40;0.40;;;15.70;77.50;;;;;;5003254;28;20117;-79
2024/02/15 07:28:33;;;;;;;0.60;0.60;;;15.70;77.40;;;;;;5006742;28;20100;-81
2024/02/15 07:31:00;;;;;;;0.55;0.55;;;15.60;77.40;;;;;;5018521;28;20042;-80
2024/02/15 07:33:25;;;;;;;0.45;0.40;;;15.60;77.40;;;;;;4649302;28;9999765;-80
2024/02/15 07:35:51;;;;;;;1.52;0.40;;;15.60;77.50;;;;;;5015779;28;20049;-79
2024/02/15 07:38:22;;;;;;;0.47;0.47;;;15.70;77.50;;;;;;5001566;28;20432;-80
2024/02/15 07:40:48;;;;;;;0.60;0.55;;;15.70;77.30;;;;;;5012845;28;20058;-80
2024/02/15 07:43:14;;;;;;;0.40;0.40;;;15.70;77.00;;;;;;4999226;28;20447;-80
2024/02/15 07:45:40;;;;;;;0.85;0.50;;;15.80;76.80;;;;;;5000844;28;20526;-83
2024/02/15 07:48:06;;;;;;;0.70;0.40;;;15.80;76.90;;;;;;5014881;28;20042;-80
2024/02/15 07:50:32;;;;;;;0.47;0.47;;;15.80;77.20;;;;;;5001027;28;20045;-81
2024/02/15 07:52:57;;;;;;;0.73;0.70;;;15.80;76.90;;;;;;5002299;28;20046;-81
2024/02/15 07:55:24;;;;;;;0.50;0.50;;;15.80;76.80;;;;;;4990058;28;20435;-82
2024/02/15 07:57:50;;;;;;;0.40;0.40;;;15.70;77.00;;;;;;5005755;28;20050;-80
2024/02/15 08:00:16;;;;;;;0.40;0.40;;;15.70;77.20;;;;;;5004483;28;20034;-82
2024/02/15 08:02:42;;;;;;;0.60;0.60;;;15.70;77.20;;;;;;4997708;28;20055;-82
2024/02/15 08:05:12;;;;;;;0.70;0.70;;;15.70;77.40;;;;;;5016147;28;20400;-81
2024/02/15 08:07:41;;;;;;;0.40;0.40;;;15.70;77.30;;;;;;5004889;28;20054;-81
2024/02/15 08:10:12;;;;;;;0.45;0.45;;;15.70;77.40;;;;;;5011048;28;20034;-81
2024/02/15 08:12:40;;;;;;;0.60;0.60;;;15.70;77.60;;;;;;4984326;28;20058;-81
2024/02/15 08:15:11;;;;;;;0.40;0.40;;;15.70;77.50;;;;;;5018135;28;20053;-80
2024/02/15 08:17:48;;;;;;;0.35;0.35;;;15.60;77.20;;;;;;5020162;28;20191;-81
2024/02/15 08:20:14;;;;;;;0.50;0.50;;;15.70;77.30;;;;;;5000065;28;20050;-82
2024/02/15 08:22:40;;;;;;;0.60;0.60;;;15.60;77.20;;;;;;4987616;28;20048;-82
2024/02/15 08:25:12;;;;;;;0.50;0.50;;;15.60;77.10;;;;;;5001877;28;20146;-82
2024/02/15 08:27:44;;;;;;;0.40;0.40;;;15.60;77.10;;;;;;5001198;28;20264;-82
2024/02/15 08:30:10;;;;;;;1.40;0.60;;;15.60;77.20;;;;;;5002764;28;20053;-82
2024/02/15 08:32:39;;;;;;;1.50;0.70;;;15.60;77.20;;;;;;5002834;28;20050;-81
2024/02/15 08:35:05;;;;;;;0.82;0.60;;;15.60;77.20;;;;;;5000116;28;20050;-82
2024/02/15 08:37:34;;;;;;;0.63;0.63;;;15.60;77.20;;;;;;4986805;28;20096;-81
2024/02/15 08:39:59;;;;;;;0.40;0.40;;;15.60;77.20;;;;;;5018467;28;20050;-82
2024/02/15 08:42:25;;;;;;;0.60;0.60;;;15.60;77.30;;;;;;5018357;28;20061;-81
2024/02/15 08:44:51;;;;;;;0.50;0.50;;;15.60;78.00;;;;;;5000732;28;20101;-82
2024/02/15 08:47:17;;;;;;;0.80;0.50;;;15.70;77.10;;;;;;5005153;28;20046;-81
2024/02/15 08:49:42;;;;;;;0.50;0.50;;;15.60;77.10;;;;;;5001983;28;20042;-82
2024/02/15 08:52:08;;;;;;;0.75;0.60;;;15.70;77.00;;;;;;5017631;28;20463;-81
2024/02/15 08:54:34;;;;;;;0.47;0.40;;;15.70;77.00;;;;;;5003809;28;20052;-82
2024/02/15 08:57:01;;;;;;;0.60;0.60;;;15.70;77.10;;;;;;5016974;28;20121;-81
2024/02/15 08:59:28;;;;;;;2.45;0.40;;;15.60;78.00;;;;;;4995835;28;20038;-81
2024/02/15 09:01:55;;;;;;;0.70;0.50;;;15.60;76.90;;;;;;4998823;28;20578;-80
2024/02/15 09:04:23;;;;;;;0.47;0.45;;;15.70;77.10;;;;;;4999981;28;20658;-81
2024/02/15 09:06:48;;;;;;;0.40;0.40;;;15.70;77.00;;;;;;5001409;28;20460;-81
2024/02/15 09:09:14;;;;;;;0.40;0.40;;;15.70;77.00;;;;;;5015788;28;20057;-81
2024/02/15 09:11:40;;;;;;;0.50;0.50;;;15.70;77.10;;;;;;5001401;28;20415;-82
2024/02/15 09:14:06;;;;;;;0.30;0.30;;;15.60;77.00;;;;;;5016049;28;20045;-81
2024/02/15 09:16:33;;;;;;;0.50;0.47;;;15.70;76.90;;;;;;5017546;28;20035;-81
2024/02/15 09:19:00;;;;;;;0.30;0.30;;;15.70;76.80;;;;;;4999795;28;20042;-82
2024/02/15 09:21:28;;;;;;;0.40;0.40;;;15.70;76.80;;;;;;5001284;28;20048;-82
2024/02/15 09:23:54;;;;;;;0.65;0.65;;;15.70;76.90;;;;;;5016675;28;20038;-81
2024/02/15 09:26:19;;;;;;;0.28;0.28;;;15.70;76.80;;;;;;5003722;28;20042;-81
2024/02/15 09:28:45;;;;;;;0.93;0.45;;;15.70;76.80;;;;;;5016977;28;20484;-82
2024/02/15 09:31:14;;;;;;;0.40;0.40;;;15.70;76.70;;;;;;5016033;28;20901;-83
2024/02/15 09:33:39;;;;;;;0.63;0.52;;;15.70;76.60;;;;;;4989394;28;20050;-81
2024/02/15 09:36:05;;;;;;;0.50;0.50;;;15.70;76.70;;;;;;5015664;28;20045;-81
2024/02/15 09:38:31;;;;;;;0.50;0.40;;;15.70;76.60;;;;;;5016609;28;20385;-82
2024/02/15 09:40:56;;;;;;;0.40;0.40;;;15.70;76.50;;;;;;4997784;28;20116;-81
2024/02/15 09:43:25;;;;;;;0.50;0.40;;;15.70;76.40;;;;;;4986344;28;20049;-82
2024/02/15 09:45:52;;;;;;;0.30;0.30;;;15.80;76.20;;;;;;5002158;28;20125;-82
2024/02/15 09:48:18;;;;;;;0.40;0.40;;;15.90;75.90;;;;;;5004393;28;20381;-81
2024/02/15 09:50:46;;;;;;;0.50;0.50;;;15.90;75.60;;;;;;5015922;28;20092;-81
2024/02/15 09:53:12;;;;;;;0.47;0.40;;;15.90;75.40;;;;;;5001553;28;20048;-82
2024/02/15 09:55:41;;;;;;;0.38;0.38;;;16.00;75.30;;;;;;4985902;28;20042;-82
2024/02/15 09:58:08;;;;;;;0.40;0.40;;;16.00;75.00;;;;;;4987869;28;20038;-81
2024/02/15 10:00:34;;;;;;;0.20;0.20;;;16.00;74.60;;;;;;4972167;28;20564;-82
2024/02/15 10:03:01;;;;;;;0.35;0.30;;;16.10;74.60;;;;;;5017383;28;20060;-81
2024/02/15 10:05:26;;;;;;;0.43;0.40;;;16.10;74.50;;;;;;5003227;28;20046;-82
2024/02/15 10:07:52;;;;;;;0.40;0.40;;;16.10;74.40;;;;;;5000262;28;20427;-81
2024/02/15 10:10:22;;;;;;;0.38;0.38;;;16.10;74.40;;;;;;5015671;28;20093;-81
2024/02/15 10:12:51;;;;;;;0.57;0.57;;;16.10;74.30;;;;;;5004003;28;20050;-82
2024/02/15 10:15:32;;;;;;;0.40;0.40;;;16.10;74.40;;;;;;5003044;28;20419;-82
2024/02/15 10:17:58;;;;;;;0.40;0.40;;;16.20;74.40;;;;;;4999904;28;20558;-81
2024/02/15 10:20:25;;;;;;;0.30;0.30;;;16.10;74.30;;;;;;5001671;28;20057;-82
2024/02/15 10:22:58;;;;;;;0.40;0.40;;;16.10;74.30;;;;;;5002622;28;20054;-81
2024/02/15 10:25:25;;;;;;;1.42;0.40;;;16.10;74.20;;;;;;5001825;28;20181;-82
2024/02/15 10:27:51;;;;;;;0.30;0.30;;;16.10;74.20;;;;;;4989444;28;20050;-82
2024/02/15 10:30:19;;;;;;;0.52;0.52;;;16.10;74.30;;;;;;5018027;28;20045;-82
2024/02/15 10:32:46;;;;;;;0.40;0.40;;;16.10;74.30;;;;;;5002277;28;20049;-82
2024/02/15 10:35:19;;;;;;;0.50;0.50;;;16.10;74.30;;;;;;5000773;28;20117;-81
2024/02/15 10:37:45;;;;;;;0.70;0.50;;;16.10;74.30;;;;;;5018618;28;20049;-81
2024/02/15 10:40:13;;;;;;;1.00;0.38;;;16.10;74.30;;;;;;4997329;28;20046;-81
2024/02/15 10:42:41;;;;;;;0.40;0.40;;;16.10;74.30;;;;;;5002471;28;20492;-81
2024/02/15 10:45:10;;;;;;;0.38;0.38;;;16.10;74.40;;;;;;5010659;28;20049;-81
2024/02/15 10:47:39;;;;;;;0.30;0.30;;;16.10;74.40;;;;;;5015410;28;20443;-82
2024/02/15 10:50:06;;;;;;;0.22;0.22;;;16.10;74.50;;;;;;5011724;28;20046;-82
2024/02/15 10:52:32;;;;;;;0.50;0.50;;;16.10;74.40;;;;;;5001252;28;20516;-82
2024/02/15 10:55:08;;;;;;;0.50;0.40;;;16.10;74.60;;;;;;5016877;28;20054;-83
2024/02/15 10:57:35;;;;;;;0.50;0.30;;;16.10;74.70;;;;;;5002217;28;20396;-83
2024/02/15 11:00:04;;;;;;;0.50;0.50;;;16.10;74.60;;;;;;4998115;28;20549;-83
2024/02/15 11:03:01;;;;;;;0.47;0.30;;;16.10;74.60;;;;;;5007499;28;20096;-82
2024/02/15 11:05:27;;;;;;;0.50;0.50;;;16.20;74.70;;;;;;4998166;28;20054;-82
2024/02/15 11:07:55;;;;;;;0.32;0.32;;;16.20;74.50;;;;;;5006269;28;20749;-82
2024/02/15 11:10:21;;;;;;;0.57;0.57;;;16.20;74.40;;;;;;4987537;28;20054;-82
2024/02/15 11:12:47;;;;;;;0.30;0.30;;;16.20;74.40;;;;;;4992724;28;20034;-82
2024/02/15 11:15:15;;;;;;;1.60;0.45;;;16.20;74.30;;;;;;4984049;28;20038;-83
2024/02/15 11:17:48;;;;;;;0.50;0.45;;;16.30;74.30;;;;;;5016401;28;20057;-82
2024/02/15 11:20:32;;;;;;;0.50;0.50;;;16.30;74.20;;;;;;5004950;28;20049;-83
2024/02/15 11:22:58;;;;;;;0.47;0.47;;;16.30;74.00;;;;;;5004570;28;20066;-82
2024/02/15 11:25:38;;;;;;;0.35;0.35;;;16.30;73.90;;;;;;5005596;28;20064;-83
2024/02/15 11:28:29;;;;;;;0.30;0.30;;;16.30;73.80;;;;;;5004392;28;20401;-82
2024/02/15 11:30:58;;;;;;;0.30;0.30;;;16.40;73.80;;;;;;5000299;28;20122;-83
2024/02/15 11:33:38;;;;;;;0.30;0.30;;;16.40;73.70;;;;;;5001643;28;20054;-82
2024/02/15 11:36:11;;;;;;;0.50;0.50;;;16.40;73.70;;;;;;5003570;28;20430;-82
2024/02/15 11:38:41;;;;;;;0.52;0.50;;;16.40;73.70;;;;;;5020125;28;20042;-82
2024/02/15 11:41:08;;;;;;;0.40;0.40;;;16.40;73.70;;;;;;5015799;28;20069;-82
2024/02/15 11:43:45;;;;;;;0.40;0.40;;;16.40;73.70;;;;;;5003109;28;20054;-82
2024/02/15 11:46:19;;;;;;;0.30;0.30;;;16.40;73.70;;;;;;4998633;28;20427;-82
2024/02/15 11:48:48;;;;;;;0.30;0.30;;;16.40;73.70;;;;;;5002868;28;20052;-82
2024/02/15 11:51:30;;;;;;;0.38;0.38;;;16.40;73.80;;;;;;5002962;28;20108;-82
2024/02/15 11:54:06;;;;;;;0.40;0.40;;;16.40;73.80;;;;;;5020086;28;20111;-82
2024/02/15 11:56:48;;;;;;;0.47;0.47;;;16.40;73.70;;;;;;5006691;28;20537;-83
2024/02/15 11:59:29;;;;;;;0.22;0.22;;;16.40;74.40;;;;;;5004649;28;20045;-83
2024/02/15 12:18:45;;;;;;;1.60;0.50;;;16.40;73.60;;;;;;5003802;28;20049;-82
2024/02/15 12:21:18;;;;;;;0.38;0.38;;;16.40;73.50;;;;;;4986532;28;20142;-82
2024/02/15 12:23:43;;;;;;;0.40;0.40;;;16.40;73.60;;;;;;4983163;28;20041;-83
2024/02/15 12:26:09;;;;;;;0.30;0.30;;;16.40;73.70;;;;;;5016466;28;20141;-83
2024/02/15 12:28:34;;;;;;;1.55;0.30;;;16.40;73.70;;;;;;5004540;28;20088;-82
2024/02/15 12:31:01;;;;;;;0.30;0.30;;;16.40;73.70;;;;;;5002999;28;20050;-83
2024/02/15 12:33:27;;;;;;;0.38;0.38;;;16.40;73.70;;;;;;4997934;28;20054;-82
2024/02/15 12:36:03;;;;;;;0.30;0.30;;;16.40;73.60;;;;;;5017551;28;20468;-82
2024/02/15 12:38:29;;;;;;;0.40;0.20;;;16.40;73.70;;;;;;5002170;28;20092;-82
2024/02/15 12:40:55;;;;;;;0.30;0.30;;;16.40;73.80;;;;;;5017887;28;20054;-79
2024/02/15 12:43:20;;;;;;;0.43;0.43;;;16.40;73.70;;;;;;5003289;28;20045;-78
2024/02/15 12:45:46;;;;;;;0.40;0.40;;;16.40;73.70;;;;;;5004925;28;20173;-79
2024/02/15 12:48:11;;;;;;;0.30;0.30;;;16.40;73.80;;;;;;5002619;28;20062;-78
2024/02/15 12:50:37;;;;;;;0.30;0.30;;;16.40;73.70;;;;;;5018226;28;20613;-79
2024/02/15 12:53:03;;;;;;;0.30;0.30;;;16.40;73.70;;;;;;5018158;28;20577;-79
2024/02/15 12:55:34;;;;;;;0.38;0.38;;;16.40;73.70;;;;;;4983279;28;20069;-79
2024/02/15 12:58:03;;;;;;;0.32;0.30;;;16.40;73.70;;;;;;5003499;28;20053;-79
2024/02/15 13:00:31;;;;;;;0.40;0.40;;;16.40;73.80;;;;;;4997932;28;20049;-78
2024/02/15 13:02:57;;;;;;;0.40;0.40;;;16.40;73.80;;;;;;5013801;28;20073;-78
2024/02/15 13:05:26;;;;;;;0.40;0.40;;;16.40;73.80;;;;;;5016597;28;20050;-78
2024/02/15 13:07:56;;;;;;;0.30;0.30;;;16.40;75.60;;;;;;5027461;28;20519;-79
2024/02/15 13:10:22;;;;;;;0.52;0.52;;;16.40;75.20;;;;;;5010239;28;20080;-79
2024/02/15 13:12:47;;;;;;;0.40;0.30;;;16.30;74.90;;;;;;5010332;28;20054;-79
2024/02/15 13:15:15;;;;;;;0.40;0.32;;;16.40;74.80;;;;;;5005244;28;20047;-79